Time;durP1;ratioP1;P1;durP2;ratioP2;P2;SDS_P1;SDS_P2;PMS_P1;PMS_P2;Temp;Humidity;BMP_temperature;BMP_pressure;BME280_temperature;BME280_humidity;BME280_pressure;Samples;Min_cycle;Max_cycle;Signal;HPM_P1;HPM_P2
2021/07/10 00:01:36;;;;;;;32.33;19.10;;;21.60;67.80;;;;;;5092969;28;20188;-87
2021/07/10 00:04:05;;;;;;;31.33;18.60;;;21.70;67.70;;;;;;5100196;28;20176;-86
2021/07/10 00:06:31;;;;;;;34.57;18.47;;;21.60;67.80;;;;;;5104213;28;20184;-86
2021/07/10 00:08:57;;;;;;;31.77;18.33;;;21.60;68.00;;;;;;5108201;28;20433;-88
2021/07/10 00:11:23;;;;;;;29.77;20.07;;;21.60;68.20;;;;;;5102891;28;20442;-85
2021/07/10 00:13:48;;;;;;;34.90;20.53;;;21.50;68.20;;;;;;5093135;28;20184;-86
2021/07/10 00:16:14;;;;;;;35.27;20.20;;;21.50;68.50;;;;;;5092616;28;20211;-85
2021/07/10 00:18:40;;;;;;;32.53;20.40;;;21.40;68.50;;;;;;5093014;28;20410;-86
2021/07/10 00:21:05;;;;;;;38.90;21.80;;;21.40;68.70;;;;;;5093595;28;20194;-85
2021/07/10 00:23:32;;;;;;;35.70;20.43;;;21.20;69.10;;;;;;5100859;28;20179;-86
2021/07/10 00:25:57;;;;;;;29.90;20.60;;;21.10;69.70;;;;;;5102216;28;20692;-85
2021/07/10 00:28:23;;;;;;;38.60;22.73;;;21.10;70.00;;;;;;5096505;28;20422;-85
2021/07/10 00:30:49;;;;;;;34.57;21.50;;;21.20;69.90;;;;;;5096637;28;20646;-85
2021/07/10 00:33:15;;;;;;;32.60;21.30;;;21.30;69.90;;;;;;5102072;28;20490;-86
2021/07/10 00:35:40;;;;;;;37.60;22.40;;;21.20;69.90;;;;;;5097288;28;20500;-86
2021/07/10 00:38:06;;;;;;;43.93;23.67;;;21.20;70.00;;;;;;5096464;28;20203;-86
2021/07/10 00:40:32;;;;;;;43.17;23.97;;;21.10;70.10;;;;;;5096115;28;20175;-87
2021/07/10 00:42:58;;;;;;;40.30;24.37;;;21.10;70.30;;;;;;5095887;28;20429;-87
2021/07/10 00:45:24;;;;;;;38.40;24.63;;;21.10;70.50;;;;;;5098116;28;20417;-86
2021/07/10 00:47:49;;;;;;;43.63;24.57;;;21.00;70.50;;;;;;5080599;28;20180;-87
2021/07/10 00:50:21;;;;;;;42.87;23.57;;;21.00;70.70;;;;;;5099712;28;20703;-86
2021/07/10 00:52:47;;;;;;;37.40;23.50;;;21.10;70.60;;;;;;5097157;28;20191;-87
2021/07/10 00:55:13;;;;;;;41.13;22.60;;;21.10;70.40;;;;;;5095940;28;20204;-87
2021/07/10 00:57:41;;;;;;;39.92;24.35;;;21.10;70.40;;;;;;5096023;28;20191;-86
2021/07/10 01:00:12;;;;;;;40.53;23.95;;;21.10;70.20;;;;;;5096062;28;20635;-87
2021/07/10 01:02:40;;;;;;;38.23;21.73;;;21.10;70.20;;;;;;5094711;28;20202;-87
2021/07/10 01:05:09;;;;;;;36.40;22.27;;;21.10;70.40;;;;;;5095877;28;20430;-87
2021/07/10 01:07:35;;;;;;;35.67;21.23;;;21.00;70.60;;;;;;5095596;28;20714;-86
2021/07/10 01:10:02;;;;;;;38.28;22.90;;;20.90;70.80;;;;;;5096595;28;20184;-87
2021/07/10 01:12:32;;;;;;;39.45;24.55;;;20.80;71.10;;;;;;5094627;28;20234;-87
2021/07/10 01:14:57;;;;;;;43.65;22.85;;;20.90;71.40;;;;;;5094571;28;20204;-86
2021/07/10 01:17:23;;;;;;;39.90;22.30;;;20.90;71.30;;;;;;5096204;28;20224;-87
2021/07/10 01:20:06;;;;;;;35.67;20.93;;;20.90;71.40;;;;;;5095172;28;20775;-87
2021/07/10 01:22:34;;;;;;;37.65;22.58;;;21.00;71.30;;;;;;5095063;28;20188;-85
2021/07/10 01:25:00;;;;;;;42.10;22.67;;;20.90;71.50;;;;;;5096428;28;20179;-85
2021/07/10 01:27:25;;;;;;;43.27;24.43;;;20.80;71.70;;;;;;5104741;28;20179;-85
2021/07/10 01:29:53;;;;;;;35.50;21.40;;;20.70;72.50;;;;;;5109089;28;20180;-85
2021/07/10 01:32:20;;;;;;;36.63;22.92;;;20.70;72.70;;;;;;5095649;28;20204;-85
2021/07/10 01:34:48;;;;;;;41.63;25.77;;;20.70;72.80;;;;;;5095851;28;20233;-85
2021/07/10 01:37:17;;;;;;;41.97;24.10;;;20.80;72.80;;;;;;5095132;28;20194;-86
2021/07/10 01:39:44;;;;;;;47.47;24.48;;;20.70;72.80;;;;;;5096151;28;20170;-86
2021/07/10 01:42:11;;;;;;;40.55;23.77;;;20.60;73.10;;;;;;5095820;28;20686;-85
2021/07/10 01:44:38;;;;;;;35.97;22.83;;;20.60;73.70;;;;;;5094864;28;20190;-86
2021/07/10 01:47:04;;;;;;;43.55;24.20;;;20.60;73.70;;;;;;5094717;28;20168;-86
2021/07/10 01:49:32;;;;;;;45.08;24.90;;;20.60;73.70;;;;;;5094953;28;20176;-85
2021/07/10 01:51:58;;;;;;;48.17;25.30;;;20.70;73.50;;;;;;5095498;28;20194;-86
2021/07/10 01:54:23;;;;;;;41.77;22.77;;;20.60;73.40;;;;;;5094222;28;20176;-86
2021/07/10 01:56:50;;;;;;;44.23;23.90;;;20.60;73.40;;;;;;5094538;28;20468;-86
2021/07/10 01:59:16;;;;;;;42.15;24.58;;;20.60;73.30;;;;;;5094807;28;20515;-86
2021/07/10 02:01:49;;;;;;;52.40;25.30;;;20.60;73.30;;;;;;5093862;28;20203;-86
2021/07/10 02:04:18;;;;;;;43.97;23.17;;;20.70;73.40;;;;;;5094614;28;20406;-86
2021/07/10 02:06:44;;;;;;;39.08;22.58;;;20.70;73.20;;;;;;5096321;28;20523;-86
2021/07/10 02:09:10;;;;;;;49.03;23.20;;;20.60;73.00;;;;;;5098178;28;20619;-86
2021/07/10 02:11:37;;;;;;;33.78;21.77;;;20.60;73.20;;;;;;5098514;28;20203;-86
2021/07/10 02:14:03;;;;;;;37.22;21.90;;;20.40;73.30;;;;;;5099535;28;20192;-85
2021/07/10 02:16:30;;;;;;;44.38;24.50;;;20.50;73.50;;;;;;5099926;28;20252;-86
2021/07/10 02:18:59;;;;;;;36.20;22.27;;;20.60;73.00;;;;;;5099932;28;20175;-86
2021/07/10 02:21:25;;;;;;;41.67;23.38;;;20.60;73.00;;;;;;5101424;28;20192;-87
2021/07/10 02:23:51;;;;;;;43.97;24.50;;;20.50;73.20;;;;;;5109538;28;20180;-87
2021/07/10 02:26:18;;;;;;;44.63;24.77;;;20.60;73.20;;;;;;5098681;28;20418;-86
2021/07/10 02:28:44;;;;;;;39.20;23.85;;;20.40;73.20;;;;;;5094560;28;20610;-86
2021/07/10 02:31:11;;;;;;;43.83;23.30;;;20.50;73.10;;;;;;5093130;28;20264;-85
2021/07/10 02:33:39;;;;;;;42.67;23.55;;;20.50;73.00;;;;;;5100260;28;20187;-86
2021/07/10 02:36:05;;;;;;;46.42;25.02;;;20.50;73.10;;;;;;5093542;28;20239;-86
2021/07/10 02:38:31;;;;;;;45.60;24.30;;;20.50;73.10;;;;;;5093580;28;20617;-85
2021/07/10 02:40:56;;;;;;;38.40;24.20;;;20.50;73.10;;;;;;5094178;28;20562;-86
2021/07/10 02:43:22;;;;;;;40.10;23.93;;;20.40;73.10;;;;;;5095114;28;20255;-85
2021/07/10 02:45:48;;;;;;;40.23;24.43;;;20.40;73.10;;;;;;5093682;28;20418;-85
2021/07/10 02:48:14;;;;;;;41.50;25.00;;;20.30;73.40;;;;;;5094710;28;20184;-86
2021/07/10 02:50:41;;;;;;;41.85;24.88;;;20.30;73.60;;;;;;5093124;28;20294;-87
2021/07/10 02:53:07;;;;;;;40.92;23.75;;;20.20;73.70;;;;;;5094547;28;20557;-86
2021/07/10 02:55:34;;;;;;;49.67;26.30;;;20.20;74.00;;;;;;5093208;28;20207;-86
2021/07/10 02:58:00;;;;;;;52.05;24.27;;;20.20;74.00;;;;;;5093315;28;20410;-86
2021/07/10 03:00:28;;;;;;;48.30;24.60;;;20.10;74.10;;;;;;5093096;28;20183;-86
2021/07/10 03:02:54;;;;;;;45.85;25.48;;;20.10;74.30;;;;;;5093666;28;20240;-86
2021/07/10 03:05:20;;;;;;;46.90;25.33;;;20.00;74.40;;;;;;5093516;28;20191;-86
2021/07/10 03:07:46;;;;;;;43.77;23.63;;;20.10;74.50;;;;;;5093557;28;20180;-86
2021/07/10 03:10:20;;;;;;;41.30;25.33;;;20.10;74.60;;;;;;5093724;28;20417;-86
2021/07/10 03:12:47;;;;;;;51.53;26.50;;;20.20;74.40;;;;;;5094136;28;20192;-85
2021/07/10 03:15:15;;;;;;;50.38;27.38;;;20.20;74.30;;;;;;5093926;28;20215;-85
2021/07/10 03:17:42;;;;;;;48.70;27.15;;;20.10;74.40;;;;;;5103503;28;20182;-86
2021/07/10 03:20:08;;;;;;;53.17;24.83;;;20.10;74.50;;;;;;5105642;28;20204;-86
2021/07/10 03:22:34;;;;;;;44.45;27.42;;;20.10;74.80;;;;;;5111248;28;20192;-85
2021/07/10 03:25:01;;;;;;;46.97;26.27;;;20.00;74.90;;;;;;5112087;28;20325;-84
2021/07/10 03:27:27;;;;;;;51.42;26.25;;;20.00;74.90;;;;;;5112794;28;20239;-85
2021/07/10 03:29:53;;;;;;;43.67;24.53;;;20.00;75.00;;;;;;5111354;28;20191;-84
2021/07/10 03:32:18;;;;;;;42.47;24.47;;;19.90;75.20;;;;;;5111524;28;20214;-85
2021/07/10 03:34:44;;;;;;;45.10;26.40;;;19.90;75.50;;;;;;5111341;28;20207;-84
2021/07/10 03:37:10;;;;;;;48.97;27.00;;;19.90;75.60;;;;;;5113415;28;20178;-84
2021/07/10 03:39:35;;;;;;;48.30;27.47;;;19.90;75.60;;;;;;5114670;28;20637;-85
2021/07/10 03:42:01;;;;;;;49.50;25.10;;;19.80;75.70;;;;;;5113186;28;20528;-85
2021/07/10 03:44:27;;;;;;;42.27;25.13;;;19.80;76.10;;;;;;5113529;28;20176;-86
2021/07/10 03:46:52;;;;;;;43.97;26.20;;;19.90;76.10;;;;;;5105103;28;20539;-86
2021/07/10 03:49:18;;;;;;;41.07;25.83;;;19.90;75.80;;;;;;5093480;28;20231;-86
2021/07/10 03:51:44;;;;;;;53.60;26.90;;;19.90;75.80;;;;;;5092751;28;20686;-85
2021/07/10 03:54:10;;;;;;;52.70;27.60;;;19.80;75.80;;;;;;5093113;28;20192;-86
2021/07/10 03:56:35;;;;;;;45.60;25.70;;;19.80;76.10;;;;;;5093277;28;20677;-86
2021/07/10 03:59:01;;;;;;;43.90;25.07;;;20.00;75.70;;;;;;5097833;28;20324;-86
2021/07/10 04:01:27;;;;;;;42.10;24.00;;;19.90;75.50;;;;;;5096377;28;20206;-86
2021/07/10 04:03:53;;;;;;;38.63;22.60;;;19.90;75.40;;;;;;5096774;28;20300;-86
2021/07/10 04:06:19;;;;;;;52.00;24.80;;;20.00;75.30;;;;;;5098194;28;20199;-86
2021/07/10 04:08:44;;;;;;;41.37;25.10;;;20.00;75.10;;;;;;5096480;28;20429;-86
2021/07/10 04:11:10;;;;;;;49.00;25.27;;;20.00;75.00;;;;;;5096530;28;20433;-86
2021/07/10 04:13:36;;;;;;;50.10;24.97;;;20.00;74.90;;;;;;5106879;28;20179;-86
2021/07/10 04:16:03;;;;;;;44.17;26.53;;;20.00;74.80;;;;;;5097822;28;20573;-85
2021/07/10 04:18:29;;;;;;;43.33;24.10;;;19.90;74.90;;;;;;5098067;28;20489;-86
2021/07/10 04:20:55;;;;;;;45.30;26.47;;;20.00;75.10;;;;;;5095854;28;20199;-86
2021/07/10 04:23:23;;;;;;;45.13;26.63;;;19.90;75.10;;;;;;5096903;28;20171;-86
2021/07/10 04:25:49;;;;;;;48.20;25.70;;;19.90;75.20;;;;;;5097568;28;20204;-86
2021/07/10 04:28:14;;;;;;;45.07;24.33;;;19.90;75.40;;;;;;5097698;28;20183;-86
2021/07/10 04:30:40;;;;;;;45.40;26.23;;;19.90;75.60;;;;;;5097039;28;20929;-86
2021/07/10 04:33:06;;;;;;;51.90;27.83;;;19.90;75.50;;;;;;5103379;28;20180;-86
2021/07/10 04:35:32;;;;;;;52.80;26.93;;;20.10;75.20;;;;;;5100116;28;20215;-86
2021/07/10 04:37:59;;;;;;;42.50;26.75;;;20.20;74.90;;;;;;5104829;28;20623;-86
2021/07/10 04:40:25;;;;;;;41.28;27.33;;;20.10;74.90;;;;;;5109915;28;20655;-87
2021/07/10 04:42:51;;;;;;;44.03;25.77;;;20.10;74.90;;;;;;5106551;28;20221;-86
2021/07/10 04:45:16;;;;;;;51.10;28.40;;;20.30;74.50;;;;;;5103472;28;20183;-87
2021/07/10 04:47:43;;;;;;;50.43;27.27;;;20.20;74.10;;;;;;5109918;28;20176;-86
2021/07/10 04:50:11;;;;;;;53.72;28.13;;;20.20;74.20;;;;;;5107574;28;20176;-86
2021/07/10 04:52:37;;;;;;;53.53;28.20;;;20.20;74.40;;;;;;5102416;28;20207;-87
2021/07/10 04:55:04;;;;;;;39.87;25.87;;;20.10;74.40;;;;;;5104865;28;20199;-87
2021/07/10 04:57:30;;;;;;;47.63;28.60;;;20.20;74.50;;;;;;5099577;28;20436;-86
2021/07/10 04:59:56;;;;;;;47.23;26.77;;;20.10;74.50;;;;;;5100840;28;20176;-86
2021/07/10 05:02:22;;;;;;;43.90;27.07;;;20.30;74.50;;;;;;5095813;28;20222;-86
2021/07/10 05:04:47;;;;;;;43.00;26.87;;;20.30;74.30;;;;;;5097029;28;20523;-86
2021/07/10 05:07:13;;;;;;;49.33;29.90;;;20.30;74.30;;;;;;5098866;28;20206;-87
2021/07/10 05:09:39;;;;;;;44.73;26.03;;;20.40;73.80;;;;;;5098635;28;20182;-86
2021/07/10 05:12:05;;;;;;;43.03;27.37;;;20.50;73.50;;;;;;5095237;28;20199;-87
2021/07/10 05:14:30;;;;;;;52.22;29.00;;;20.50;73.40;;;;;;5095296;28;20187;-87
2021/07/10 05:16:56;;;;;;;48.03;26.17;;;20.50;73.50;;;;;;5095492;28;20260;-86
2021/07/10 05:19:22;;;;;;;47.47;27.77;;;20.50;73.30;;;;;;5095251;28;20242;-84
2021/07/10 05:21:48;;;;;;;49.67;29.37;;;20.50;73.30;;;;;;5094757;28;20556;-85
2021/07/10 05:24:13;;;;;;;41.67;26.90;;;20.50;73.50;;;;;;5095226;28;20172;-85
2021/07/10 05:26:39;;;;;;;45.30;26.20;;;20.50;73.70;;;;;;5095485;28;20414;-85
2021/07/10 05:29:05;;;;;;;40.00;25.73;;;20.60;73.30;;;;;;5096154;28;20413;-86
2021/07/10 05:31:31;;;;;;;43.63;27.58;;;20.70;73.00;;;;;;5094916;28;20560;-85
2021/07/10 05:33:57;;;;;;;57.50;29.93;;;20.60;72.80;;;;;;5095897;28;20187;-85
2021/07/10 05:36:23;;;;;;;47.13;28.23;;;20.70;72.80;;;;;;5095527;28;20652;-85
2021/07/10 05:38:48;;;;;;;43.67;26.40;;;20.70;72.70;;;;;;5095624;28;20179;-85
2021/07/10 05:41:15;;;;;;;39.07;24.17;;;20.80;72.70;;;;;;5095724;28;20215;-86
2021/07/10 05:43:41;;;;;;;46.70;26.70;;;21.00;72.00;;;;;;5095102;28;20211;-85
2021/07/10 05:46:06;;;;;;;48.20;27.27;;;21.20;71.20;;;;;;5107521;28;20414;-85
2021/07/10 05:48:33;;;;;;;41.53;26.60;;;21.20;70.80;;;;;;5097186;28;20175;-85
2021/07/10 05:50:58;;;;;;;39.10;26.27;;;21.10;71.30;;;;;;5093938;28;20199;-85
2021/07/10 05:53:24;;;;;;;44.20;26.27;;;21.50;70.50;;;;;;5095717;28;20406;-85
2021/07/10 05:55:50;;;;;;;35.60;24.47;;;21.60;69.80;;;;;;5094711;28;20208;-85
2021/07/10 05:58:16;;;;;;;53.63;25.30;;;21.60;69.40;;;;;;5094519;28;20650;-85
2021/07/10 06:00:42;;;;;;;43.63;24.90;;;21.80;69.10;;;;;;5093848;28;20545;-85
2021/07/10 06:03:08;;;;;;;39.70;23.70;;;21.90;68.80;;;;;;5096351;28;20239;-85
2021/07/10 06:05:33;;;;;;;38.97;25.43;;;21.90;68.10;;;;;;5096139;28;20491;-85
2021/07/10 06:07:59;;;;;;;42.90;25.00;;;22.10;67.80;;;;;;5095996;28;20175;-85
2021/07/10 06:10:25;;;;;;;37.03;24.70;;;22.00;67.70;;;;;;5095654;28;20268;-86
2021/07/10 06:12:51;;;;;;;36.33;24.77;;;22.20;67.80;;;;;;5094435;28;20200;-86
2021/07/10 06:15:18;;;;;;;41.43;26.67;;;22.20;67.60;;;;;;5094691;28;20211;-85
2021/07/10 06:17:44;;;;;;;36.10;24.70;;;22.30;67.30;;;;;;5094506;28;20516;-85
2021/07/10 06:20:13;;;;;;;42.23;25.97;;;22.60;66.80;;;;;;5093624;28;20418;-86
2021/07/10 06:22:40;;;;;;;35.07;23.90;;;22.80;66.30;;;;;;5093907;28;20441;-87
2021/07/10 06:25:07;;;;;;;47.00;26.23;;;23.00;65.30;;;;;;5094386;28;20509;-87
2021/07/10 06:27:33;;;;;;;38.67;24.77;;;23.10;64.90;;;;;;5094233;28;20418;-87
2021/07/10 06:29:59;;;;;;;38.80;24.93;;;23.20;64.30;;;;;;5094024;28;20445;-87
2021/07/10 06:32:25;;;;;;;38.73;24.47;;;23.20;63.60;;;;;;5093578;28;20294;-87
2021/07/10 06:34:50;;;;;;;41.00;26.53;;;23.20;63.10;;;;;;5093915;28;20180;-87
2021/07/10 06:37:16;;;;;;;43.00;25.03;;;23.10;63.60;;;;;;5094154;28;20175;-86
2021/07/10 06:39:42;;;;;;;42.23;25.33;;;23.10;63.60;;;;;;5095214;28;20539;-87
2021/07/10 06:42:07;;;;;;;43.80;24.83;;;23.10;63.70;;;;;;5093225;28;20250;-87
2021/07/10 06:44:33;;;;;;;43.30;25.00;;;23.10;63.50;;;;;;5095123;28;20168;-87
2021/07/10 06:46:59;;;;;;;44.57;25.70;;;23.10;63.30;;;;;;5093619;28;20221;-87
2021/07/10 06:49:24;;;;;;;42.10;24.63;;;23.10;63.50;;;;;;5093990;28;20248;-87
2021/07/10 06:51:50;;;;;;;39.67;24.90;;;23.10;63.60;;;;;;5093134;28;20572;-87
2021/07/10 06:54:16;;;;;;;40.80;26.97;;;23.00;63.40;;;;;;5093771;28;20184;-87
2021/07/10 06:56:42;;;;;;;40.00;24.27;;;22.70;64.20;;;;;;5093537;28;20242;-86
2021/07/10 06:59:10;;;;;;;40.73;26.17;;;22.70;64.80;;;;;;5097283;28;20176;-86
2021/07/10 07:01:36;;;;;;;41.07;24.97;;;22.60;64.80;;;;;;5093217;28;20444;-87
2021/07/10 07:04:02;;;;;;;39.10;23.23;;;22.70;65.10;;;;;;5096360;28;20406;-86
2021/07/10 07:06:28;;;;;;;43.43;25.67;;;22.60;65.30;;;;;;5096727;28;20412;-84
2021/07/10 07:08:53;;;;;;;43.83;26.43;;;22.60;65.60;;;;;;5095314;28;20176;-86
2021/07/10 07:11:20;;;;;;;40.33;26.13;;;22.60;65.70;;;;;;5095276;28;20237;-87
2021/07/10 07:13:45;;;;;;;36.37;24.20;;;22.40;65.60;;;;;;5094534;28;20224;-86
2021/07/10 07:16:11;;;;;;;43.60;24.67;;;22.40;66.20;;;;;;5096060;28;20483;-87
2021/07/10 07:18:37;;;;;;;49.27;26.17;;;22.50;66.40;;;;;;5095753;28;20836;-87
2021/07/10 07:21:03;;;;;;;42.87;25.97;;;22.50;66.50;;;;;;5095016;28;20263;-87
2021/07/10 07:23:29;;;;;;;42.67;24.87;;;22.60;66.40;;;;;;5093662;28;20518;-88
2021/07/10 07:25:55;;;;;;;39.17;24.70;;;22.60;65.80;;;;;;5093626;28;20417;-87
2021/07/10 07:28:20;;;;;;;40.53;23.93;;;22.60;65.90;;;;;;5094026;28;20857;-87
2021/07/10 07:30:46;;;;;;;38.03;22.80;;;22.70;66.00;;;;;;5094244;28;20264;-86
2021/07/10 07:33:12;;;;;;;40.90;25.30;;;22.70;65.50;;;;;;5097080;28;20708;-86
2021/07/10 07:35:37;;;;;;;45.37;23.70;;;22.70;64.80;;;;;;5098454;28;20218;-85
2021/07/10 07:38:03;;;;;;;36.23;23.30;;;22.70;64.80;;;;;;5098646;28;20648;-85
2021/07/10 07:40:29;;;;;;;36.90;23.70;;;22.80;64.50;;;;;;5096927;28;20184;-85
2021/07/10 07:42:55;;;;;;;39.90;24.63;;;22.40;64.70;;;;;;5080522;28;20203;-85
2021/07/10 07:45:22;;;;;;;40.87;23.87;;;22.40;65.00;;;;;;5097204;28;20514;-84
2021/07/10 07:47:48;;;;;;;36.10;24.53;;;22.20;65.50;;;;;;5097575;28;20987;-86
2021/07/10 07:50:15;;;;;;;36.90;21.70;;;22.30;65.80;;;;;;5098039;28;20777;-85
2021/07/10 07:52:41;;;;;;;38.67;23.90;;;22.50;65.70;;;;;;5100418;28;20442;-86
2021/07/10 07:55:10;;;;;;;36.30;22.30;;;22.80;65.40;;;;;;5101209;28;20470;-87
2021/07/10 07:57:37;;;;;;;35.17;22.33;;;23.20;64.90;;;;;;5097028;28;20430;-87
2021/07/10 08:00:10;;;;;;;35.47;22.90;;;23.40;63.60;;;;;;5097342;28;20441;-88
2021/07/10 08:02:36;;;;;;;45.97;24.30;;;23.40;63.10;;;;;;5097412;28;20449;-86
2021/07/10 08:05:02;;;;;;;41.67;24.83;;;23.60;62.50;;;;;;5097414;28;20421;-85
2021/07/10 08:07:28;;;;;;;48.40;25.77;;;23.70;62.00;;;;;;5097006;28;20180;-85
2021/07/10 08:09:53;;;;;;;41.90;22.90;;;23.70;61.50;;;;;;5097079;28;20424;-85
2021/07/10 08:12:19;;;;;;;34.67;24.30;;;24.10;61.50;;;;;;5096214;28;20670;-85
2021/07/10 08:14:45;;;;;;;30.50;21.70;;;24.50;60.70;;;;;;5098108;28;20187;-85
2021/07/10 08:17:11;;;;;;;35.40;22.30;;;24.60;59.30;;;;;;5097791;28;20520;-86
2021/07/10 08:19:37;;;;;;;30.50;21.60;;;24.90;58.70;;;;;;5098241;28;20504;-86
2021/07/10 08:22:03;;;;;;;29.23;21.10;;;25.10;57.90;;;;;;5096443;28;20467;-86
2021/07/10 08:24:29;;;;;;;29.60;21.17;;;25.10;57.20;;;;;;5098207;28;20616;-86
2021/07/10 08:26:54;;;;;;;29.60;20.80;;;25.20;56.80;;;;;;5096240;28;20413;-86
2021/07/10 08:29:20;;;;;;;35.97;23.50;;;25.20;55.80;;;;;;5096791;28;20240;-86
2021/07/10 08:31:46;;;;;;;30.23;19.83;;;25.00;55.70;;;;;;5096306;28;20196;-86
2021/07/10 08:34:12;;;;;;;28.37;20.47;;;24.80;56.10;;;;;;5097265;28;20310;-86
2021/07/10 08:36:38;;;;;;;31.80;19.93;;;24.60;56.50;;;;;;5096014;28;20199;-86
2021/07/10 08:39:07;;;;;;;33.57;19.27;;;24.50;57.30;;;;;;5095927;28;20424;-86
2021/07/10 08:41:33;;;;;;;29.93;19.70;;;24.60;57.60;;;;;;5095509;28;20188;-86
2021/07/10 08:43:59;;;;;;;24.97;18.50;;;24.60;57.20;;;;;;5095743;28;20422;-86
2021/07/10 08:46:25;;;;;;;26.43;19.57;;;24.80;56.70;;;;;;5096495;28;20527;-86
2021/07/10 08:48:51;;;;;;;28.70;19.73;;;24.50;56.50;;;;;;5098993;28;20422;-86
2021/07/10 08:51:17;;;;;;;26.13;19.03;;;24.50;57.30;;;;;;5096482;28;21021;-86
2021/07/10 08:53:43;;;;;;;25.23;16.60;;;24.80;57.10;;;;;;5096339;28;20184;-86
2021/07/10 08:56:09;;;;;;;24.00;16.90;;;24.90;55.90;;;;;;5095998;28;20458;-86
2021/07/10 08:58:36;;;;;;;25.27;18.67;;;25.00;55.10;;;;;;5096199;28;20412;-86
2021/07/10 09:01:04;;;;;;;24.33;15.67;;;24.90;55.30;;;;;;5096189;28;20898;-86
2021/07/10 09:03:30;;;;;;;26.20;16.13;;;24.50;55.50;;;;;;5096556;28;20797;-86
2021/07/10 09:05:56;;;;;;;24.80;15.47;;;24.70;56.10;;;;;;5096041;28;20508;-85
2021/07/10 09:08:25;;;;;;;24.40;13.70;;;25.00;55.80;;;;;;5095782;28;20192;-86
2021/07/10 09:11:03;;;;;;;22.80;15.27;;;24.90;54.50;;;;;;5095122;28;20433;-85
2021/07/10 09:13:30;;;;;;;24.67;15.70;;;25.10;54.40;;;;;;5095899;28;20414;-86
2021/07/10 09:16:01;;;;;;;25.63;17.37;;;25.10;55.20;;;;;;5096908;28;20524;-86
2021/07/10 09:18:45;;;;;;;25.37;17.37;;;25.20;54.60;;;;;;5095927;28;20453;-86
2021/07/10 09:21:31;;;;;;;24.00;14.73;;;25.40;54.00;;;;;;5095050;28;20434;-86
2021/07/10 09:23:56;;;;;;;27.30;16.47;;;25.40;54.10;;;;;;5095192;28;20417;-86
2021/07/10 09:26:28;;;;;;;23.10;16.00;;;25.40;53.50;;;;;;5095410;28;20422;-86
2021/07/10 09:29:07;;;;;;;21.93;15.87;;;25.60;53.00;;;;;;5098321;28;20183;-85
2021/07/10 09:31:40;;;;;;;15.47;11.80;;;25.20;52.90;;;;;;5100743;28;20444;-86
2021/07/10 09:34:10;;;;;;;17.60;12.97;;;25.60;52.20;;;;;;5095593;28;20794;-86
2021/07/10 09:36:39;;;;;;;21.03;13.53;;;25.30;52.40;;;;;;5095727;28;20980;-85
2021/07/10 09:39:10;;;;;;;19.20;13.20;;;25.30;53.00;;;;;;5095588;28;20414;-86
2021/07/10 09:41:36;;;;;;;20.33;12.57;;;25.50;52.70;;;;;;5095535;28;20449;-86
2021/07/10 09:44:13;;;;;;;17.23;12.40;;;25.40;51.90;;;;;;5101494;28;20413;-86
2021/07/10 09:46:39;;;;;;;13.90;10.60;;;25.40;52.60;;;;;;5107042;28;20194;-86
2021/07/10 09:49:27;;;;;;;13.67;10.60;;;25.80;51.90;;;;;;5100479;28;20421;-86
2021/07/10 09:52:05;;;;;;;18.13;10.90;;;26.30;50.90;;;;;;5100882;28;20444;-86
2021/07/10 09:54:52;;;;;;;11.63;7.90;;;26.40;48.60;;;;;;5100136;28;20427;-86
2021/07/10 09:57:25;;;;;;;13.50;9.70;;;26.80;47.40;;;;;;5099891;28;20453;-86
2021/07/10 09:59:54;;;;;;;12.93;10.43;;;27.10;47.20;;;;;;5098600;28;20412;-86
2021/07/10 10:02:26;;;;;;;11.63;10.43;;;27.10;46.70;;;;;;5100621;28;20441;-86
2021/07/10 10:05:03;;;;;;;15.30;11.13;;;27.20;46.30;;;;;;5100625;28;20414;-86
2021/07/10 10:07:39;;;;;;;22.90;12.30;;;27.20;46.20;;;;;;5099626;28;20429;-86
2021/07/10 10:10:05;;;;;;;14.50;10.87;;;27.20;46.60;;;;;;5098971;28;20413;-86
2021/07/10 10:12:31;;;;;;;13.50;10.50;;;27.30;47.00;;;;;;5095859;28;20442;-86
2021/07/10 10:14:57;;;;;;;10.63;7.83;;;27.50;45.20;;;;;;5095732;28;20434;-86
2021/07/10 10:17:25;;;;;;;10.00;6.70;;;27.40;44.10;;;;;;5095384;28;20266;-86
2021/07/10 10:19:51;;;;;;;9.50;7.30;;;27.60;43.10;;;;;;5096891;28;20180;-86
2021/07/10 10:22:18;;;;;;;10.20;7.60;;;27.80;42.70;;;;;;5095756;28;20433;-86
2021/07/10 10:24:50;;;;;;;9.07;8.13;;;28.00;42.70;;;;;;5096998;28;20477;-87
2021/07/10 10:27:16;;;;;;;9.67;8.10;;;27.90;42.40;;;;;;5095487;28;20471;-86
2021/07/10 10:29:43;;;;;;;11.27;8.70;;;27.80;42.60;;;;;;5095597;28;20487;-87
2021/07/10 10:32:09;;;;;;;9.50;8.00;;;27.60;42.70;;;;;;5095546;28;20470;-86
2021/07/10 10:34:39;;;;;;;10.67;7.07;;;27.70;43.10;;;;;;5096169;28;20741;-87
2021/07/10 10:37:06;;;;;;;11.47;7.27;;;28.00;43.80;;;;;;5095262;28;20793;-86
2021/07/10 10:39:34;;;;;;;8.10;6.53;;;28.10;41.70;;;;;;5101101;28;20433;-86
2021/07/10 10:42:03;;;;;;;7.93;6.27;;;28.00;42.50;;;;;;5104645;28;20948;-86
2021/07/10 10:44:38;;;;;;;8.53;7.40;;;28.20;41.60;;;;;;5095524;28;20417;-86
2021/07/10 10:47:05;;;;;;;11.57;7.77;;;28.10;42.10;;;;;;5096436;28;20409;-86
2021/07/10 10:49:41;;;;;;;9.30;7.43;;;28.10;42.40;;;;;;5095362;28;20505;-86
2021/07/10 10:52:24;;;;;;;10.47;6.90;;;28.10;41.50;;;;;;5096397;28;20448;-87
2021/07/10 10:54:54;;;;;;;8.87;6.47;;;27.30;43.10;;;;;;5097418;28;20441;-86
2021/07/10 10:57:54;;;;;;;10.00;7.43;;;27.50;43.00;;;;;;5094990;28;20425;-87
2021/07/10 11:00:37;;;;;;;6.73;5.73;;;27.50;42.40;;;;;;5093678;28;20798;-87
2021/07/10 11:03:12;;;;;;;9.00;6.70;;;27.70;42.00;;;;;;5095566;28;20738;-86
2021/07/10 11:05:39;;;;;;;6.30;5.33;;;27.70;41.60;;;;;;5094662;28;20425;-86
2021/07/10 11:08:29;;;;;;;7.33;5.33;;;27.80;40.20;;;;;;5096430;28;20439;-87
2021/07/10 11:10:58;;;;;;;7.83;5.70;;;27.40;39.30;;;;;;5076112;28;20450;-87
2021/07/10 11:13:52;;;;;;;5.50;4.97;;;27.40;40.40;;;;;;5074907;28;20430;-86
2021/07/10 11:16:20;;;;;;;5.63;5.13;;;27.30;39.30;;;;;;5076152;28;20924;-86
2021/07/10 11:19:03;;;;;;;8.43;6.40;;;27.40;40.80;;;;;;5076387;28;20515;-86
2021/07/10 11:21:35;;;;;;;10.07;7.20;;;27.50;41.60;;;;;;5074311;28;20480;-86
2021/07/10 11:24:16;;;;;;;8.00;5.90;;;27.50;42.10;;;;;;5074930;28;20418;-87
2021/07/10 11:27:09;;;;;;;10.53;7.60;;;27.70;42.90;;;;;;5075747;28;20593;-86
2021/07/10 11:29:40;;;;;;;9.27;7.37;;;27.60;42.90;;;;;;5076242;28;20425;-86
2021/07/10 11:32:13;;;;;;;9.03;8.13;;;27.70;42.80;;;;;;5074177;28;20467;-86
2021/07/10 11:34:59;;;;;;;17.73;8.70;;;27.50;42.70;;;;;;5076369;28;20833;-87
2021/07/10 11:37:25;;;;;;;8.70;7.37;;;27.40;43.10;;;;;;5079907;28;20754;-87
2021/07/10 11:40:01;;;;;;;9.97;8.37;;;26.90;44.50;;;;;;5076935;28;20406;-86
2021/07/10 11:42:28;;;;;;;12.00;8.00;;;27.00;45.40;;;;;;5074922;28;20827;-86
2021/07/10 11:45:13;;;;;;;9.50;7.80;;;26.80;45.00;;;;;;5077128;28;20413;-87
2021/07/10 11:47:40;;;;;;;11.80;8.70;;;26.60;45.20;;;;;;5075534;28;20464;-87
2021/07/10 11:50:07;;;;;;;8.57;7.53;;;27.00;45.70;;;;;;5075341;28;20425;-86
2021/07/10 11:52:33;;;;;;;10.03;6.90;;;27.30;45.20;;;;;;5076019;28;20450;-87
2021/07/10 11:55:03;;;;;;;6.73;6.07;;;27.40;44.10;;;;;;5075283;28;20468;-86
2021/07/10 11:57:47;;;;;;;8.20;5.93;;;27.20;43.90;;;;;;5075671;28;20906;-87
2021/07/10 12:00:13;;;;;;;6.83;6.13;;;27.30;43.20;;;;;;5075514;28;20414;-86
2021/07/10 12:02:40;;;;;;;8.27;7.10;;;27.20;43.50;;;;;;5074890;28;20595;-86
2021/07/10 12:05:12;;;;;;;8.40;6.10;;;26.70;43.80;;;;;;5076315;28;20523;-86
2021/07/10 12:07:58;;;;;;;5.13;4.63;;;26.90;45.10;;;;;;5076555;28;20417;-86
2021/07/10 12:10:26;;;;;;;5.70;3.77;;;27.00;42.40;;;;;;5090296;28;20419;-87
2021/07/10 12:12:54;;;;;;;4.40;4.00;;;27.40;39.90;;;;;;5077987;28;20500;-87
2021/07/10 12:15:30;;;;;;;3.93;3.53;;;27.70;38.40;;;;;;5095574;28;20462;-86
2021/07/10 12:17:58;;;;;;;4.33;3.93;;;27.50;38.20;;;;;;5097080;28;20442;-86
2021/07/10 12:20:30;;;;;;;5.37;3.80;;;27.60;38.70;;;;;;5100133;28;20409;-87
2021/07/10 12:22:59;;;;;;;4.30;3.90;;;27.50;37.90;;;;;;5105541;28;20780;-87
2021/07/10 12:25:55;;;;;;;3.90;3.53;;;27.50;37.40;;;;;;5105594;28;20428;-87
2021/07/10 12:28:48;;;;;;;7.33;3.90;;;27.40;37.80;;;;;;5106788;28;20888;-87
2021/07/10 12:31:35;;;;;;;8.20;3.57;;;27.10;38.80;;;;;;5108193;28;20544;-86
2021/07/10 12:34:09;;;;;;;6.10;4.00;;;27.00;39.30;;;;;;5106036;28;20413;-87
2021/07/10 12:36:46;;;;;;;4.40;4.00;;;27.00;39.50;;;;;;5104197;28;20453;-87